createdAt,value
2019-04-27T00:00:37.422Z,4.83
2019-04-27T00:03:10.463Z,4.37
2019-04-27T00:05:43.868Z,5.15
2019-04-27T00:08:14.365Z,5.00
2019-04-27T00:10:44.815Z,5.30
2019-04-27T00:13:15.174Z,5.58
2019-04-27T00:15:53.671Z,6.37
2019-04-27T00:18:40.492Z,5.50
2019-04-27T00:21:26.216Z,4.70
2019-04-27T00:23:55.255Z,4.15
2019-04-27T00:26:24.137Z,4.80
2019-04-27T00:28:53.746Z,3.77
2019-04-27T00:31:23.415Z,3.25
2019-04-27T00:33:53.573Z,4.17
2019-04-27T00:36:36.266Z,3.62
2019-04-27T00:39:08.290Z,3.25
2019-04-27T00:41:37.506Z,3.45
2019-04-27T00:44:06.438Z,4.28
2019-04-27T00:46:35.384Z,3.52
2019-04-27T00:49:04.325Z,3.77
2019-04-27T00:51:33.398Z,2.45
2019-04-27T00:54:02.347Z,2.92
2019-04-27T00:56:49.159Z,2.45
2019-04-27T00:59:19.612Z,2.85
2019-04-27T01:01:53.448Z,2.95
2019-04-27T01:04:26.791Z,2.65
2019-04-27T01:06:55.826Z,3.83
2019-04-27T01:09:25.419Z,4.17
2019-04-27T01:11:54.496Z,2.45
2019-04-27T01:14:23.418Z,2.80
2019-04-27T01:16:52.355Z,2.30
2019-04-27T01:19:21.307Z,2.87
2019-04-27T01:21:50.250Z,4.15
2019-04-27T01:24:19.126Z,2.37
2019-04-27T01:26:49.997Z,2.95
2019-04-27T01:29:32.537Z,2.98
2019-04-27T01:32:01.878Z,2.40
2019-04-27T01:34:30.773Z,2.95
2019-04-27T01:36:59.731Z,2.22
2019-04-27T01:39:28.998Z,2.52
2019-04-27T01:41:59.048Z,2.22
2019-04-27T01:44:29.582Z,2.22
2019-04-27T01:46:59.899Z,2.10
2019-04-27T01:49:29.494Z,2.00
2019-04-27T01:51:59.459Z,1.42
2019-04-27T01:54:29.440Z,1.47
2019-04-27T01:57:00.725Z,1.70
2019-04-27T01:59:29.978Z,1.30
2019-04-27T02:02:00.567Z,1.50
2019-04-27T02:04:49.540Z,1.47
2019-04-27T02:07:19.206Z,1.05
2019-04-27T02:09:48.726Z,1.30
2019-04-27T02:12:19.079Z,1.80
2019-04-27T02:14:49.136Z,1.77
2019-04-27T02:17:18.757Z,1.65
2019-04-27T02:19:49.401Z,3.22
2019-04-27T02:22:18.803Z,4.87
2019-04-27T02:24:49.263Z,2.92
2019-04-27T02:27:19.932Z,4.08
2019-04-27T02:30:02.834Z,3.25
2019-04-27T02:32:33.334Z,4.28
2019-04-27T02:35:03.852Z,3.92
2019-04-27T02:37:32.729Z,4.97
2019-04-27T02:40:01.769Z,5.25
2019-04-27T02:42:35.187Z,5.12
2019-04-27T02:45:04.924Z,4.85
2019-04-27T02:47:33.843Z,3.30
2019-04-27T02:50:02.744Z,4.85
2019-04-27T02:52:36.202Z,4.28
2019-04-27T02:55:06.495Z,5.33
2019-04-27T02:57:35.408Z,3.75
2019-04-27T03:00:05.847Z,3.35
2019-04-27T03:02:36.344Z,3.45
2019-04-27T03:05:06.547Z,4.35
2019-04-27T03:07:35.468Z,3.35
2019-04-27T03:10:06.467Z,4.05
2019-04-27T03:12:36.981Z,4.10
2019-04-27T03:15:14.915Z,3.90
2019-04-27T03:17:45.412Z,3.15
2019-04-27T03:20:16.097Z,3.20
2019-04-27T03:22:49.897Z,3.20
2019-04-27T03:25:21.165Z,3.02
2019-04-27T03:27:51.728Z,3.22
2019-04-27T03:30:22.762Z,3.65
2019-04-27T03:32:55.953Z,3.30
2019-04-27T03:35:23.143Z,4.10
2019-04-27T03:37:52.376Z,3.40
2019-04-27T03:40:22.549Z,4.35
2019-04-27T03:42:53.100Z,5.08
2019-04-27T03:45:22.137Z,4.95
2019-04-27T03:47:51.902Z,5.45
2019-04-27T03:50:22.356Z,5.80
2019-04-27T03:53:10.322Z,5.10
2019-04-27T03:55:56.200Z,4.90
2019-04-27T03:58:39.636Z,6.20
2019-04-27T04:01:10.606Z,6.80
2019-04-27T04:03:39.533Z,5.40
2019-04-27T04:06:10.806Z,5.75
2019-04-27T04:08:39.868Z,7.05
2019-04-27T04:11:10.509Z,5.67
2019-04-27T04:13:41.048Z,6.45
2019-04-27T04:16:29.680Z,6.10
2019-04-27T04:19:02.373Z,7.15
2019-04-27T04:21:31.267Z,7.37
2019-04-27T04:24:01.108Z,5.87
2019-04-27T04:26:32.940Z,7.75
2019-04-27T04:29:00.975Z,6.97
2019-04-27T04:31:33.087Z,6.53
2019-04-27T04:34:00.422Z,6.60
2019-04-27T04:36:30.162Z,5.30
2019-04-27T04:39:00.667Z,4.67
2019-04-27T04:41:34.452Z,4.12
2019-04-27T04:44:12.170Z,4.83
2019-04-27T04:46:45.563Z,6.35
2019-04-27T04:49:14.587Z,5.10
2019-04-27T04:51:43.536Z,4.42
2019-04-27T04:54:12.434Z,3.98
2019-04-27T04:56:41.310Z,4.03
2019-04-27T04:59:10.258Z,3.58
2019-04-27T05:01:39.878Z,3.92
2019-04-27T05:04:09.195Z,4.65
2019-04-27T05:06:38.972Z,3.60
2019-04-27T05:09:09.293Z,4.70
2019-04-27T05:11:39.759Z,3.60
2019-04-27T05:14:09.845Z,3.62
2019-04-27T05:16:39.760Z,4.33
2019-04-27T05:19:11.210Z,2.90
2019-04-27T05:21:40.064Z,3.65
2019-04-27T05:24:09.524Z,3.72
2019-04-27T05:26:39.791Z,4.97
2019-04-27T05:29:09.352Z,4.17
2019-04-27T05:31:39.233Z,3.87
2019-04-27T05:34:09.548Z,3.37
2019-04-27T05:36:41.819Z,4.05
2019-04-27T05:39:13.119Z,3.55
2019-04-27T05:41:41.657Z,3.45
2019-04-27T05:44:13.068Z,2.85
2019-04-27T05:46:53.745Z,3.25
2019-04-27T05:49:25.066Z,3.27
2019-04-27T05:51:54.355Z,3.00
2019-04-27T05:54:23.843Z,3.33
2019-04-27T05:56:53.095Z,3.50
2019-04-27T05:59:22.643Z,3.72
2019-04-27T06:01:52.558Z,5.10
2019-04-27T06:04:22.338Z,5.10
2019-04-27T06:06:52.169Z,6.70
2019-04-27T06:09:23.752Z,6.87
2019-04-27T06:11:52.850Z,6.20
2019-04-27T06:14:22.383Z,5.72
2019-04-27T06:16:52.289Z,7.85
2019-04-27T06:19:22.069Z,7.83
2019-04-27T06:21:52.401Z,6.20
2019-04-27T06:24:22.660Z,5.85
2019-04-27T06:26:52.550Z,5.75
2019-04-27T06:29:21.680Z,6.35
2019-04-27T06:31:51.067Z,6.15
2019-04-27T06:34:20.845Z,6.97
2019-04-27T06:36:50.464Z,6.28
2019-04-27T06:39:20.806Z,5.50
2019-04-27T06:41:50.882Z,7.15
2019-04-27T06:44:20.588Z,7.05
2019-04-27T06:46:50.640Z,6.90
2019-04-27T06:49:20.216Z,6.53
2019-04-27T06:51:49.942Z,5.20
2019-04-27T06:54:19.753Z,5.42
2019-04-27T06:56:49.929Z,5.28
2019-04-27T06:59:19.436Z,6.37
2019-04-27T07:01:49.513Z,7.20
2019-04-27T07:04:21.539Z,5.80
2019-04-27T07:06:55.946Z,6.10
2019-04-27T07:09:22.832Z,5.37
2019-04-27T07:11:52.126Z,6.03
2019-04-27T07:14:22.386Z,4.53
2019-04-27T07:16:52.087Z,6.47
2019-04-27T07:19:23.776Z,6.15
2019-04-27T07:21:53.040Z,6.30
2019-04-27T07:24:22.797Z,6.20
2019-04-27T07:26:52.489Z,6.42
2019-04-27T07:29:23.243Z,7.08
2019-04-27T07:31:54.261Z,6.47
2019-04-27T07:34:23.501Z,6.22
2019-04-27T07:36:52.679Z,5.90
2019-04-27T07:39:21.950Z,6.35
2019-04-27T07:41:51.995Z,3.95
2019-04-27T07:44:29.891Z,5.30
2019-04-27T07:47:04.722Z,5.60
2019-04-27T07:49:35.460Z,5.97
2019-04-27T07:52:05.785Z,6.87
2019-04-27T07:54:38.484Z,6.33
2019-04-27T07:57:09.831Z,5.62
2019-04-27T07:59:42.055Z,6.08
2019-04-27T08:02:12.336Z,6.40
2019-04-27T08:04:42.826Z,6.55
2019-04-27T08:07:13.979Z,5.40
2019-04-27T08:09:44.095Z,5.95
2019-04-27T08:12:13.769Z,5.95
2019-04-27T08:14:43.657Z,5.60
2019-04-27T08:17:13.394Z,5.22
2019-04-27T08:19:45.250Z,5.35
2019-04-27T08:22:14.530Z,4.12
2019-04-27T08:24:43.878Z,5.47
2019-04-27T08:27:20.719Z,6.12
2019-04-27T08:29:51.742Z,4.33
2019-04-27T08:32:29.287Z,5.25
2019-04-27T08:34:59.505Z,4.85
2019-04-27T08:37:29.155Z,4.83
2019-04-27T08:39:59.288Z,5.33
2019-04-27T08:42:29.388Z,5.55
2019-04-27T08:44:59.511Z,5.83
2019-04-27T08:47:29.393Z,5.87
2019-04-27T08:49:59.230Z,5.47
2019-04-27T08:52:29.032Z,6.60
2019-04-27T08:54:59.443Z,5.90
2019-04-27T08:57:29.218Z,6.53
2019-04-27T08:59:59.810Z,5.40
2019-04-27T09:02:41.804Z,6.35
2019-04-27T09:05:01.146Z,4.83
2019-04-27T09:07:46.760Z,6.10
2019-04-27T09:10:34.131Z,5.28
2019-04-27T09:13:08.878Z,3.65
2019-04-27T09:15:42.372Z,4.17
2019-04-27T09:18:13.054Z,4.80
2019-04-27T09:20:43.572Z,5.62
2019-04-27T09:23:12.480Z,6.20
2019-04-27T09:25:41.414Z,6.47
2019-04-27T09:28:10.310Z,5.37
2019-04-27T09:30:39.436Z,4.87
2019-04-27T09:33:08.430Z,4.30
2019-04-27T09:35:37.334Z,6.62
2019-04-27T09:38:07.075Z,4.90
2019-04-27T09:40:37.026Z,5.67
2019-04-27T09:43:07.467Z,5.45
2019-04-27T09:45:37.180Z,6.15
2019-04-27T09:48:07.276Z,4.95
2019-04-27T09:50:36.229Z,5.85
2019-04-27T09:53:06.382Z,5.55
2019-04-27T09:55:36.843Z,4.87
2019-04-27T09:58:05.996Z,5.95
2019-04-27T10:00:36.448Z,4.87
2019-04-27T10:03:06.642Z,5.35
2019-04-27T10:05:36.730Z,4.22
2019-04-27T10:08:06.313Z,5.45
2019-04-27T10:10:37.039Z,6.22
2019-04-27T10:13:07.130Z,5.47
2019-04-27T10:15:36.070Z,5.80
2019-04-27T10:18:06.108Z,5.83
2019-04-27T10:20:39.002Z,6.50
2019-04-27T10:23:06.266Z,5.95
2019-04-27T10:25:37.521Z,5.60
2019-04-27T10:28:08.462Z,6.20
2019-04-27T10:30:37.547Z,7.00
2019-04-27T10:33:08.132Z,5.62
2019-04-27T10:35:37.213Z,5.50
2019-04-27T10:38:06.154Z,7.35
2019-04-27T10:40:36.064Z,7.12
2019-04-27T10:43:06.317Z,5.40
2019-04-27T10:45:37.920Z,6.10
2019-04-27T10:48:06.636Z,6.67
2019-04-27T10:50:36.650Z,5.50
2019-04-27T10:53:06.932Z,5.15
2019-04-27T10:55:36.355Z,5.30
2019-04-27T10:58:05.795Z,4.83
2019-04-27T11:00:38.835Z,5.37
2019-04-27T11:03:07.868Z,4.62
2019-04-27T11:05:38.422Z,3.70
2019-04-27T11:08:07.368Z,4.50
2019-04-27T11:10:36.268Z,3.15
2019-04-27T11:13:06.278Z,3.22
2019-04-27T11:15:37.128Z,2.75
2019-04-27T11:18:06.429Z,2.60
2019-04-27T11:20:36.261Z,1.82
2019-04-27T11:23:09.428Z,2.20
2019-04-27T11:25:36.523Z,1.90
2019-04-27T11:28:05.882Z,1.75
2019-04-27T11:30:35.211Z,2.33
2019-04-27T11:33:06.114Z,2.05
2019-04-27T11:35:48.511Z,2.08
2019-04-27T11:38:19.238Z,2.37
2019-04-27T11:40:48.374Z,1.42
2019-04-27T11:43:17.373Z,1.77
2019-04-27T11:45:46.810Z,1.37
2019-04-27T11:48:16.187Z,1.27
2019-04-27T11:50:45.988Z,1.12
2019-04-27T11:53:22.345Z,0.88
2019-04-27T11:55:46.260Z,1.30
2019-04-27T11:58:16.483Z,1.30
2019-04-27T12:00:45.631Z,1.45
2019-04-27T12:03:16.568Z,1.05
2019-04-27T12:05:46.485Z,1.20
2019-04-27T12:08:16.170Z,1.30
2019-04-27T12:10:48.283Z,1.32
2019-04-27T12:13:17.579Z,1.10
2019-04-27T12:15:47.111Z,1.42
2019-04-27T12:18:16.143Z,1.45
2019-04-27T12:20:46.200Z,1.62
2019-04-27T12:23:16.480Z,2.27
2019-04-27T12:25:46.203Z,1.52
2019-04-27T12:28:16.794Z,1.37
2019-04-27T12:31:04.186Z,1.52
2019-04-27T12:33:33.039Z,2.08
2019-04-27T12:36:02.076Z,1.37
2019-04-27T12:38:31.000Z,1.27
2019-04-27T12:41:00.024Z,1.60
2019-04-27T12:43:28.935Z,1.70
2019-04-27T12:45:57.821Z,1.90
2019-04-27T12:48:26.856Z,1.70
2019-04-27T12:50:56.321Z,1.50
2019-04-27T12:53:40.618Z,2.00
2019-04-27T12:56:07.537Z,1.77
2019-04-27T12:58:38.036Z,2.45
2019-04-27T13:01:11.317Z,2.67
2019-04-27T13:03:40.202Z,2.00
2019-04-27T13:06:09.135Z,2.77
2019-04-27T13:08:38.085Z,2.12
2019-04-27T13:11:07.567Z,2.47
2019-04-27T13:13:36.854Z,2.58
2019-04-27T13:16:06.536Z,2.37
2019-04-27T13:18:36.100Z,2.80
2019-04-27T13:21:05.228Z,3.02
2019-04-27T13:23:34.179Z,4.00
2019-04-27T13:26:03.171Z,4.25
2019-04-27T13:28:32.125Z,3.60
2019-04-27T13:31:01.246Z,4.45
2019-04-27T13:33:30.234Z,3.72
2019-04-27T13:35:59.147Z,4.65
2019-04-27T13:38:28.020Z,3.87
2019-04-27T13:41:09.581Z,3.25
2019-04-27T13:43:39.464Z,4.12
2019-04-27T13:46:22.344Z,3.60
2019-04-27T13:49:02.088Z,4.10
2019-04-27T13:51:32.623Z,4.25
2019-04-27T13:54:14.165Z,3.75
2019-04-27T13:56:32.221Z,4.30
2019-04-27T13:59:02.881Z,4.10
2019-04-27T14:01:32.147Z,3.67
2019-04-27T14:04:01.239Z,3.60
2019-04-27T14:06:30.190Z,3.30
2019-04-27T14:08:59.172Z,3.50
2019-04-27T14:11:29.040Z,3.72
2019-04-27T14:13:58.417Z,4.70
2019-04-27T14:16:29.072Z,3.15
2019-04-27T14:18:59.440Z,4.35
2019-04-27T14:21:29.564Z,2.90
2019-04-27T14:23:58.899Z,3.95
2019-04-27T14:26:28.473Z,3.37
2019-04-27T14:28:58.322Z,3.52
2019-04-27T14:31:29.093Z,3.62
2019-04-27T14:33:58.769Z,3.08
2019-04-27T14:36:29.195Z,4.30
2019-04-27T14:38:58.819Z,3.15
2019-04-27T14:41:28.272Z,3.70
2019-04-27T14:44:07.394Z,4.17
2019-04-27T14:46:28.266Z,3.90
2019-04-27T14:48:58.352Z,2.90
2019-04-27T14:51:27.300Z,4.22
2019-04-27T14:53:56.182Z,3.98
2019-04-27T14:56:25.131Z,3.92
2019-04-27T14:58:54.050Z,4.90
2019-04-27T15:01:22.994Z,6.35
2019-04-27T15:03:52.291Z,7.03
2019-04-27T15:06:22.089Z,6.40
2019-04-27T15:08:51.392Z,5.22
2019-04-27T15:11:20.387Z,5.25
2019-04-27T15:13:51.000Z,7.05
2019-04-27T15:16:19.859Z,5.80
2019-04-27T15:18:59.991Z,5.92
2019-04-27T15:21:32.669Z,5.40
2019-04-27T15:24:02.433Z,4.87
2019-04-27T15:26:31.486Z,5.10
2019-04-27T15:29:02.259Z,4.37
2019-04-27T15:31:35.786Z,5.12
2019-04-27T15:34:23.359Z,4.30
2019-04-27T15:36:58.202Z,5.03
2019-04-27T15:39:43.618Z,4.40
2019-04-27T15:42:14.186Z,4.37
2019-04-27T15:44:44.245Z,4.80
2019-04-27T15:47:13.392Z,5.15
2019-04-27T15:49:49.951Z,5.97
2019-04-27T15:52:13.028Z,5.10
2019-04-27T15:54:42.041Z,6.53
2019-04-27T15:57:13.724Z,6.53
2019-04-27T15:59:41.730Z,5.83
2019-04-27T16:02:15.246Z,5.08
2019-04-27T16:04:44.413Z,4.67
2019-04-27T16:07:12.438Z,4.53
2019-04-27T16:09:42.159Z,4.20
2019-04-27T16:12:12.927Z,4.37
2019-04-27T16:14:44.143Z,6.03
2019-04-27T16:17:13.354Z,3.85
2019-04-27T16:19:46.671Z,4.35
2019-04-27T16:22:12.879Z,4.62
2019-04-27T16:24:41.802Z,3.95
2019-04-27T16:27:10.731Z,4.33
2019-04-27T16:29:40.072Z,3.83
2019-04-27T16:32:11.507Z,4.85
2019-04-27T16:34:41.328Z,4.35
2019-04-27T16:37:14.009Z,4.92
2019-04-27T16:39:45.684Z,3.62
2019-04-27T16:42:14.248Z,4.17
2019-04-27T16:44:51.409Z,4.78
2019-04-27T16:47:18.837Z,4.33
2019-04-27T16:49:48.367Z,4.72
2019-04-27T16:52:19.265Z,5.97
2019-04-27T16:54:57.175Z,6.15
2019-04-27T16:57:21.127Z,5.28
2019-04-27T16:59:54.837Z,5.47
2019-04-27T17:02:25.128Z,5.70
2019-04-27T17:04:55.358Z,6.45
2019-04-27T17:07:23.301Z,7.08
2019-04-27T17:09:52.788Z,7.28
2019-04-27T17:12:23.780Z,5.75
2019-04-27T17:14:54.108Z,7.65
2019-04-27T17:17:28.939Z,8.55
2019-04-27T17:19:59.387Z,7.85
2019-04-27T17:22:28.707Z,7.85
2019-04-27T17:24:58.917Z,6.25
2019-04-27T17:27:31.748Z,8.43
2019-04-27T17:30:02.733Z,8.33
2019-04-27T17:32:38.867Z,8.75
2019-04-27T17:35:14.476Z,8.45
2019-04-27T17:37:40.743Z,10.25
2019-04-27T17:40:10.294Z,10.38
2019-04-27T17:42:40.118Z,10.70
2019-04-27T17:45:09.124Z,8.85
2019-04-27T17:47:38.897Z,11.20
2019-04-27T17:50:09.374Z,13.08
2019-04-27T17:52:39.833Z,9.55
2019-04-27T17:55:09.653Z,10.65
2019-04-27T17:57:39.266Z,9.00
2019-04-27T18:00:11.270Z,8.83
2019-04-27T18:02:42.338Z,8.20
2019-04-27T18:05:13.738Z,10.13
2019-04-27T18:07:44.224Z,7.60
2019-04-27T18:10:21.837Z,6.90
2019-04-27T18:12:48.625Z,6.83
2019-04-27T18:15:16.432Z,8.90
2019-04-27T18:17:49.975Z,10.30
2019-04-27T18:20:28.921Z,8.90
2019-04-27T18:23:00.859Z,10.15
2019-04-27T18:25:35.586Z,10.40
2019-04-27T18:28:07.972Z,9.00
2019-04-27T18:30:41.951Z,12.95
2019-04-27T18:33:09.822Z,8.93
2019-04-27T18:35:39.566Z,9.55
2019-04-27T18:38:10.453Z,9.00
2019-04-27T18:40:40.438Z,10.70
2019-04-27T18:43:12.459Z,9.20
2019-04-27T18:45:45.065Z,10.05
2019-04-27T18:48:30.191Z,11.33
2019-04-27T18:51:02.260Z,8.83
2019-04-27T18:53:34.556Z,8.68
2019-04-27T18:56:05.299Z,9.53
2019-04-27T18:58:34.489Z,9.48
2019-04-27T19:01:03.412Z,7.78
2019-04-27T19:03:32.360Z,7.03
2019-04-27T19:06:01.258Z,10.35
2019-04-27T19:08:30.207Z,6.78
2019-04-27T19:11:00.411Z,8.78
2019-04-27T19:13:29.542Z,7.80
2019-04-27T19:15:59.912Z,7.22
2019-04-27T19:18:28.932Z,7.12
2019-04-27T19:20:58.474Z,8.03
2019-04-27T19:23:28.999Z,7.95
2019-04-27T19:25:59.509Z,8.88
2019-04-27T19:28:45.017Z,7.15
2019-04-27T19:31:30.539Z,6.37
2019-04-27T19:33:59.842Z,6.70
2019-04-27T19:36:30.375Z,5.75
2019-04-27T19:38:59.764Z,6.67
2019-04-27T19:41:28.936Z,7.10
2019-04-27T19:43:59.770Z,5.78
2019-04-27T19:46:30.395Z,6.62
2019-04-27T19:48:59.267Z,8.30
2019-04-27T19:51:28.342Z,4.60
2019-04-27T19:53:58.166Z,6.60
2019-04-27T19:56:28.350Z,5.83
2019-04-27T19:58:59.161Z,7.95
2019-04-27T20:01:35.580Z,6.62
2019-04-27T20:04:06.074Z,7.65
2019-04-27T20:06:44.602Z,7.45
2019-04-27T20:09:19.109Z,8.68
2019-04-27T20:11:48.322Z,9.80
2019-04-27T20:14:17.214Z,7.17
2019-04-27T20:16:46.159Z,7.03
2019-04-27T20:19:15.194Z,6.12
2019-04-27T20:21:44.100Z,8.68
2019-04-27T20:24:13.230Z,8.65
2019-04-27T20:26:42.122Z,8.98
2019-04-27T20:29:11.855Z,7.53
2019-04-27T20:31:41.099Z,6.65
2019-04-27T20:34:10.062Z,7.72
2019-04-27T20:36:38.946Z,8.40
2019-04-27T20:39:07.875Z,8.15
2019-04-27T20:41:36.806Z,7.03
2019-04-27T20:44:05.994Z,7.83
2019-04-27T20:46:34.932Z,9.15
2019-04-27T20:49:05.424Z,9.35
2019-04-27T20:51:53.153Z,10.23
2019-04-27T20:54:26.295Z,8.60
2019-04-27T20:56:57.193Z,10.50
2019-04-27T20:59:26.287Z,13.88
2019-04-27T21:01:55.541Z,9.53
2019-04-27T21:04:26.003Z,9.35
2019-04-27T21:07:06.255Z,11.05
2019-04-27T21:09:35.734Z,8.18
2019-04-27T21:12:04.656Z,9.55
2019-04-27T21:14:35.801Z,6.37
2019-04-27T21:17:05.930Z,8.93
2019-04-27T21:19:35.173Z,9.43
2019-04-27T21:22:04.328Z,12.50
2019-04-27T21:24:33.346Z,9.70
2019-04-27T21:27:02.247Z,14.18
2019-04-27T21:29:31.289Z,10.98
2019-04-27T21:32:01.031Z,12.55
2019-04-27T21:34:31.039Z,12.65
2019-04-27T21:37:01.071Z,14.70
2019-04-27T21:39:31.827Z,14.73
2019-04-27T21:42:01.029Z,9.75
2019-04-27T21:44:31.817Z,12.00
2019-04-27T21:47:00.831Z,10.80
2019-04-27T21:49:31.445Z,12.85
2019-04-27T21:52:14.469Z,11.05
2019-04-27T21:54:43.444Z,12.03
2019-04-27T21:57:12.805Z,8.30
2019-04-27T21:59:43.541Z,11.00
2019-04-27T22:02:13.186Z,10.13
2019-04-27T22:04:42.124Z,12.18
2019-04-27T22:07:11.589Z,10.10
2019-04-27T22:09:43.023Z,10.03
2019-04-27T22:12:13.766Z,9.88
2019-04-27T22:14:45.169Z,11.38
2019-04-27T22:17:14.523Z,14.60
2019-04-27T22:19:46.502Z,11.97
2019-04-27T22:22:17.928Z,9.15
2019-04-27T22:24:46.810Z,11.95
2019-04-27T22:27:15.743Z,11.85
2019-04-27T22:29:44.676Z,9.13
2019-04-27T22:32:13.564Z,11.28
2019-04-27T22:34:42.497Z,10.65
2019-04-27T22:37:11.451Z,11.73
2019-04-27T22:39:41.912Z,10.53
2019-04-27T22:42:13.233Z,8.38
2019-04-27T22:44:44.160Z,8.60
2019-04-27T22:47:13.292Z,9.48
2019-04-27T22:49:44.999Z,10.82
2019-04-27T22:52:13.934Z,10.80
2019-04-27T22:54:42.821Z,10.35
2019-04-27T22:57:13.326Z,10.60
2019-04-27T22:59:43.850Z,9.13
2019-04-27T23:02:15.464Z,9.40
2019-04-27T23:04:48.726Z,8.68
2019-04-27T23:07:17.603Z,8.70
2019-04-27T23:09:46.486Z,11.68
2019-04-27T23:12:15.427Z,10.35
2019-04-27T23:14:44.359Z,9.90
2019-04-27T23:17:31.664Z,12.20
2019-04-27T23:20:01.388Z,9.20
2019-04-27T23:22:31.508Z,7.40
2019-04-27T23:25:01.120Z,7.55
2019-04-27T23:27:31.827Z,8.28
2019-04-27T23:30:01.333Z,6.60
2019-04-27T23:32:48.055Z,8.80
2019-04-27T23:35:16.939Z,7.37
2019-04-27T23:37:45.828Z,8.48
2019-04-27T23:40:15.450Z,8.65
2019-04-27T23:42:44.487Z,9.45
2019-04-27T23:45:13.640Z,9.18
2019-04-27T23:47:42.684Z,7.97
2019-04-27T23:50:13.034Z,7.40
2019-04-27T23:52:52.588Z,8.35
2019-04-27T23:55:23.331Z,11.15
2019-04-27T23:57:52.210Z,9.83
